createdAt,value
2018-10-11T00:00:02.730Z,19.00
2018-10-11T00:02:28.951Z,19.00
2018-10-11T00:04:55.173Z,19.00
2018-10-11T00:07:21.394Z,19.00
2018-10-11T00:09:47.614Z,19.00
2018-10-11T00:12:13.838Z,19.00
2018-10-11T00:14:40.058Z,19.00
2018-10-11T00:17:06.279Z,19.00
2018-10-11T00:19:32.499Z,19.00
2018-10-11T00:21:58.732Z,19.00
2018-10-11T00:24:24.975Z,19.00
2018-10-11T00:26:51.198Z,19.00
2018-10-11T00:29:17.427Z,19.00
2018-10-11T00:31:43.654Z,19.00
2018-10-11T00:34:09.869Z,19.00
2018-10-11T00:36:36.091Z,19.00
2018-10-11T00:39:02.318Z,19.00
2018-10-11T00:41:28.549Z,19.00
2018-10-11T00:43:54.761Z,19.00
2018-10-11T00:46:20.999Z,19.00
2018-10-11T00:48:47.842Z,19.00
2018-10-11T00:51:14.089Z,19.00
2018-10-11T00:53:40.313Z,19.00
2018-10-11T00:56:06.561Z,19.00
2018-10-11T00:58:32.790Z,19.00
2018-10-11T01:00:59.008Z,19.00
2018-10-11T01:03:26.015Z,19.00
2018-10-11T01:05:52.239Z,19.00
2018-10-11T01:08:18.463Z,19.00
2018-10-11T01:10:44.690Z,19.00
2018-10-11T01:13:10.925Z,18.90
2018-10-11T01:15:37.176Z,19.00
2018-10-11T01:18:03.391Z,19.00
2018-10-11T01:20:29.609Z,19.00
2018-10-11T01:22:55.831Z,18.90
2018-10-11T01:25:22.064Z,18.90
2018-10-11T01:27:48.292Z,19.00
2018-10-11T01:30:14.561Z,19.00
2018-10-11T01:32:40.834Z,18.90
2018-10-11T01:35:07.822Z,18.90
2018-10-11T01:37:34.067Z,18.90
2018-10-11T01:40:00.290Z,19.00
2018-10-11T01:42:26.527Z,18.90
2018-10-11T01:44:52.758Z,18.90
2018-10-11T01:47:18.995Z,19.00
2018-10-11T01:49:45.295Z,19.00
2018-10-11T01:52:11.526Z,18.90
2018-10-11T01:54:37.759Z,18.90
2018-10-11T01:57:03.976Z,18.90
2018-10-11T01:59:30.206Z,18.90
2018-10-11T02:01:56.423Z,18.90
2018-10-11T02:04:22.631Z,18.90
2018-10-11T02:06:48.843Z,18.90
2018-10-11T02:09:15.117Z,18.90
2018-10-11T02:11:41.318Z,18.90
2018-10-11T02:14:07.571Z,18.90
2018-10-11T02:16:33.787Z,19.00
2018-10-11T02:19:00.016Z,19.00
2018-10-11T02:21:26.223Z,19.00
2018-10-11T02:23:53.204Z,18.90
2018-10-11T02:26:19.427Z,18.90
2018-10-11T02:28:45.656Z,19.00
2018-10-11T02:31:11.932Z,19.00
2018-10-11T02:33:38.311Z,19.00
2018-10-11T02:36:04.551Z,19.00
2018-10-11T02:38:30.775Z,18.90
2018-10-11T02:40:56.989Z,18.90
2018-10-11T02:43:23.214Z,18.90
2018-10-11T02:45:50.204Z,18.90
2018-10-11T02:48:16.621Z,18.90
2018-10-11T02:50:42.841Z,18.90
2018-10-11T02:53:09.152Z,18.90
2018-10-11T02:55:35.378Z,19.00
2018-10-11T02:58:01.598Z,18.90
2018-10-11T03:00:27.816Z,18.90
2018-10-11T03:02:54.060Z,18.90
2018-10-11T03:05:20.300Z,18.90
2018-10-11T03:07:46.526Z,18.90
2018-10-11T03:10:12.754Z,18.90
2018-10-11T03:12:38.978Z,18.90
2018-10-11T03:15:05.209Z,18.90
2018-10-11T03:17:31.430Z,18.90
2018-10-11T03:19:57.657Z,18.90
2018-10-11T03:22:23.881Z,18.90
2018-10-11T03:27:22.361Z,18.90
2018-10-11T03:29:48.606Z,18.90
2018-10-11T03:32:14.833Z,18.90
2018-10-11T03:34:41.063Z,18.90
2018-10-11T03:37:07.285Z,18.90
2018-10-11T03:39:33.505Z,18.90
2018-10-11T03:44:31.371Z,18.90
2018-10-11T03:46:57.593Z,18.90
2018-10-11T03:49:23.822Z,18.90
2018-10-11T03:51:50.030Z,18.90
2018-10-11T03:54:16.261Z,18.90
2018-10-11T03:56:42.486Z,18.90
2018-10-11T03:59:08.698Z,18.90
2018-10-11T04:01:34.937Z,18.90
2018-10-11T04:04:01.167Z,18.90
2018-10-11T04:06:27.339Z,18.90
2018-10-11T04:08:54.343Z,18.90
2018-10-11T04:11:20.709Z,18.90
2018-10-11T04:13:46.873Z,18.90
2018-10-11T04:16:13.799Z,18.90
2018-10-11T04:18:39.971Z,18.90
2018-10-11T04:21:06.222Z,18.90
2018-10-11T04:23:32.403Z,18.90
2018-10-11T04:25:59.383Z,18.90
2018-10-11T04:28:25.522Z,18.90
2018-10-11T04:33:24.034Z,18.90
2018-10-11T04:35:50.202Z,18.90
2018-10-11T04:38:16.375Z,18.90
2018-10-11T04:40:42.535Z,18.90
2018-10-11T04:43:08.826Z,18.90
2018-10-11T04:45:34.887Z,18.90
2018-10-11T04:48:01.055Z,18.90
2018-10-11T04:50:27.231Z,18.90
2018-10-11T04:52:53.402Z,18.90
2018-10-11T04:57:52.833Z,18.90
2018-10-11T05:00:19.019Z,18.80
2018-10-11T05:02:46.727Z,18.80
2018-10-11T05:05:12.936Z,18.80
2018-10-11T05:07:40.594Z,18.80
2018-10-11T05:10:06.749Z,18.80
2018-10-11T05:12:32.932Z,18.90
2018-10-11T05:15:00.602Z,18.80
2018-10-11T05:17:26.901Z,18.90
2018-10-11T05:19:52.979Z,18.90
2018-10-11T05:22:19.162Z,18.90
2018-10-11T05:24:45.315Z,18.90
2018-10-11T05:27:11.488Z,18.90
2018-10-11T05:29:37.659Z,18.90
2018-10-11T05:32:03.822Z,18.80
2018-10-11T05:34:29.994Z,18.90
2018-10-11T05:36:56.159Z,18.90
2018-10-11T05:39:22.318Z,18.90
2018-10-11T05:41:48.495Z,18.90
2018-10-11T05:44:14.677Z,18.90
2018-10-11T05:46:40.847Z,18.90
2018-10-11T05:49:07.010Z,18.90
2018-10-11T05:51:33.180Z,18.90
2018-10-11T05:53:59.346Z,18.90
2018-10-11T05:56:26.295Z,18.90
2018-10-11T05:58:52.467Z,18.80
2018-10-11T06:01:18.649Z,18.90
2018-10-11T06:03:45.583Z,18.90
2018-10-11T06:06:11.763Z,18.90
2018-10-11T06:08:37.939Z,18.90
2018-10-11T06:11:04.114Z,18.90
2018-10-11T06:13:30.507Z,18.90
2018-10-11T06:15:56.676Z,18.90
2018-10-11T06:18:22.921Z,18.90
2018-10-11T06:20:49.089Z,18.90
2018-10-11T06:23:16.030Z,18.90
2018-10-11T06:25:42.203Z,18.80
2018-10-11T06:28:08.372Z,18.90
2018-10-11T06:33:06.894Z,18.90
2018-10-11T06:35:33.074Z,18.90
2018-10-11T06:37:59.236Z,18.90
2018-10-11T06:42:57.215Z,18.90
2018-10-11T06:45:23.379Z,18.80
2018-10-11T06:47:49.547Z,18.80
2018-10-11T06:50:15.732Z,18.80
2018-10-11T06:52:41.894Z,18.80
2018-10-11T06:55:08.055Z,18.90
2018-10-11T06:57:34.210Z,18.80
2018-10-11T07:00:00.376Z,18.80
2018-10-11T07:02:26.606Z,18.80
2018-10-11T07:04:52.830Z,18.80
2018-10-11T07:07:19.049Z,18.80
2018-10-11T07:09:45.962Z,18.80
2018-10-11T07:12:12.896Z,18.90
2018-10-11T07:14:39.062Z,18.80
2018-10-11T07:17:05.229Z,18.90
2018-10-11T07:19:31.483Z,18.80
2018-10-11T07:21:57.614Z,18.90
2018-10-11T07:24:23.779Z,18.80
2018-10-11T07:26:49.955Z,18.90
2018-10-11T07:29:16.123Z,18.90
2018-10-11T07:31:42.279Z,18.90
2018-10-11T07:34:08.442Z,18.80
2018-10-11T07:36:34.611Z,18.90
2018-10-11T07:39:00.771Z,18.90
2018-10-11T07:41:26.938Z,18.90
2018-10-11T07:43:53.118Z,18.90
2018-10-11T07:46:19.280Z,18.90
2018-10-11T07:48:45.451Z,18.90
2018-10-11T07:51:11.627Z,18.90
2018-10-11T07:53:37.805Z,19.00
2018-10-11T07:56:03.987Z,19.00
2018-10-11T07:58:30.161Z,19.00
2018-10-11T08:00:56.323Z,19.00
2018-10-11T08:03:23.336Z,19.00
2018-10-11T08:05:49.484Z,18.90
2018-10-11T08:08:15.665Z,19.00
2018-10-11T08:10:42.129Z,19.00
2018-10-11T08:13:08.815Z,19.00
2018-10-11T08:15:35.006Z,19.00
2018-10-11T08:18:01.495Z,19.00
2018-10-11T08:20:27.422Z,19.00
2018-10-11T08:22:54.344Z,19.00
2018-10-11T08:25:22.215Z,19.00
2018-10-11T08:27:48.231Z,19.00
2018-10-11T08:30:15.912Z,19.00
2018-10-11T08:32:42.490Z,19.00
2018-10-11T08:35:08.318Z,19.00
2018-10-11T08:37:34.525Z,19.00
2018-10-11T08:40:00.710Z,19.00
2018-10-11T08:42:26.890Z,19.00
2018-10-11T08:44:53.084Z,19.00
2018-10-11T08:47:20.287Z,19.10
2018-10-11T08:49:46.460Z,19.10
2018-10-11T08:52:12.626Z,19.10
2018-10-11T08:54:38.809Z,19.10
2018-10-11T08:57:05.757Z,19.10
2018-10-11T08:59:31.948Z,19.10
2018-10-11T09:01:58.108Z,19.10
2018-10-11T09:04:24.288Z,19.10
2018-10-11T09:06:50.453Z,19.10
2018-10-11T09:09:16.618Z,19.10
2018-10-11T09:11:42.786Z,19.10
2018-10-11T09:14:08.947Z,19.10
2018-10-11T09:16:35.891Z,19.10
2018-10-11T09:19:02.054Z,19.10
2018-10-11T09:21:28.223Z,19.10
2018-10-11T09:23:54.386Z,19.10
2018-10-11T09:28:52.521Z,19.10
2018-10-11T09:33:50.374Z,19.10
2018-10-11T09:36:16.573Z,19.10
2018-10-11T09:38:42.735Z,19.10
2018-10-11T09:41:08.897Z,19.10
2018-10-11T09:43:35.071Z,19.10
2018-10-11T09:46:02.005Z,19.10
2018-10-11T09:48:28.178Z,19.10
2018-10-11T09:50:54.359Z,19.10
2018-10-11T09:53:21.289Z,19.10
2018-10-11T09:55:47.450Z,19.10
2018-10-11T09:58:13.710Z,19.10
2018-10-11T10:00:39.938Z,19.10
2018-10-11T10:03:06.110Z,19.10
2018-10-11T10:05:32.265Z,19.10
2018-10-11T10:07:58.537Z,19.10
2018-10-11T10:10:24.713Z,19.20
2018-10-11T10:12:51.680Z,19.20
2018-10-11T10:15:17.855Z,19.20
2018-10-11T10:17:44.044Z,19.20
2018-10-11T10:20:10.218Z,19.20
2018-10-11T10:22:36.383Z,19.20
2018-10-11T10:25:02.549Z,19.20
2018-10-11T10:30:00.731Z,19.20
2018-10-11T10:32:26.895Z,19.20
2018-10-11T10:34:53.835Z,19.20
2018-10-11T10:37:20.012Z,19.20
2018-10-11T10:39:46.191Z,19.30
2018-10-11T10:42:12.362Z,19.30
2018-10-11T10:44:38.535Z,19.30
2018-10-11T10:47:04.709Z,19.30
2018-10-11T10:52:02.393Z,19.30
2018-10-11T10:54:28.568Z,19.30
2018-10-11T10:56:54.754Z,19.40
2018-10-11T10:59:20.927Z,19.40
2018-10-11T11:01:47.105Z,19.40
2018-10-11T11:04:13.286Z,19.50
2018-10-11T11:06:39.462Z,19.50
2018-10-11T11:09:05.626Z,19.50
2018-10-11T11:11:31.855Z,19.50
2018-10-11T11:13:58.041Z,19.50
2018-10-11T11:16:24.305Z,19.50
2018-10-11T11:18:50.504Z,19.50
2018-10-11T11:21:16.669Z,19.60
2018-10-11T11:23:43.683Z,19.60
2018-10-11T11:26:09.842Z,19.60
2018-10-11T11:31:08.279Z,19.60
2018-10-11T11:33:34.394Z,19.60
2018-10-11T11:36:01.325Z,19.60
2018-10-11T11:38:28.999Z,19.60
2018-10-11T11:40:55.162Z,19.60
2018-10-11T11:43:21.333Z,19.60
2018-10-11T11:45:48.351Z,19.60
2018-10-11T11:48:14.491Z,19.60
2018-10-11T11:50:40.848Z,19.60
2018-10-11T11:53:06.896Z,19.60
2018-10-11T11:55:33.130Z,19.60
2018-10-11T11:57:59.341Z,19.60
2018-10-11T12:00:25.523Z,19.60
2018-10-11T12:02:51.739Z,19.70
2018-10-11T12:05:18.667Z,19.70
2018-10-11T12:07:44.834Z,19.70
2018-10-11T12:10:11.860Z,19.70
2018-10-11T12:12:38.034Z,19.70
2018-10-11T12:15:04.198Z,19.70
2018-10-11T12:17:30.408Z,19.70
2018-10-11T12:19:56.585Z,19.70
2018-10-11T12:22:22.760Z,19.80
2018-10-11T12:24:49.714Z,19.80
2018-10-11T12:27:15.891Z,19.80
2018-10-11T12:29:42.058Z,19.80
2018-10-11T12:32:08.218Z,19.80
2018-10-11T12:34:34.397Z,19.90
2018-10-11T12:37:00.565Z,19.80
2018-10-11T12:39:26.730Z,19.90
2018-10-11T12:41:52.909Z,19.90
2018-10-11T12:44:19.845Z,19.90
2018-10-11T12:46:46.012Z,19.90
2018-10-11T12:49:12.244Z,19.90
2018-10-11T12:51:39.176Z,19.90
2018-10-11T12:54:05.329Z,19.90
2018-10-11T12:56:33.753Z,19.80
2018-10-11T12:58:59.844Z,19.90
2018-10-11T13:01:26.024Z,19.80
2018-10-11T13:03:52.202Z,19.80
2018-10-11T13:06:18.372Z,19.90
2018-10-11T13:08:44.548Z,19.90
2018-10-11T13:11:10.732Z,19.90
2018-10-11T13:13:38.465Z,19.90
2018-10-11T13:16:05.094Z,19.90
2018-10-11T13:18:30.864Z,19.90
2018-10-11T13:20:57.065Z,19.90
2018-10-11T13:23:23.994Z,19.90
2018-10-11T13:25:50.159Z,19.90
2018-10-11T13:28:16.331Z,19.90
2018-10-11T13:30:42.519Z,19.90
2018-10-11T13:33:08.691Z,19.90
2018-10-11T13:35:34.889Z,19.90
2018-10-11T13:38:01.045Z,19.90
2018-10-11T13:40:27.267Z,19.90
2018-10-11T13:42:53.414Z,19.90
2018-10-11T13:45:19.587Z,19.90
2018-10-11T13:47:45.769Z,19.90
2018-10-11T13:50:11.940Z,19.90
2018-10-11T13:52:38.112Z,19.90
2018-10-11T13:55:09.648Z,19.90
2018-10-11T13:57:31.371Z,19.90
2018-10-11T13:59:56.700Z,19.90
2018-10-11T14:02:22.866Z,19.90
2018-10-11T14:04:49.037Z,19.90
2018-10-11T14:07:15.240Z,19.90
2018-10-11T14:09:41.427Z,19.90
2018-10-11T14:12:07.579Z,19.90
2018-10-11T14:14:33.754Z,19.90
2018-10-11T14:16:59.977Z,19.90
2018-10-11T14:19:26.160Z,19.90
2018-10-11T14:21:52.313Z,19.90
2018-10-11T14:24:18.494Z,19.90
2018-10-11T14:26:45.433Z,19.90
2018-10-11T14:29:12.370Z,19.90
2018-10-11T14:31:38.579Z,19.90
2018-10-11T14:34:04.755Z,19.90
2018-10-11T14:36:30.953Z,19.90
2018-10-11T14:38:57.126Z,19.90
2018-10-11T14:41:23.297Z,19.90
2018-10-11T14:43:50.990Z,19.90
2018-10-11T14:46:17.947Z,19.90
2018-10-11T14:48:44.159Z,19.90
2018-10-11T14:51:10.379Z,19.90
2018-10-11T14:53:36.539Z,19.90
2018-10-11T14:56:02.718Z,19.90
2018-10-11T14:58:28.902Z,20.00
2018-10-11T15:00:55.132Z,19.90
2018-10-11T15:03:21.394Z,19.90
2018-10-11T15:05:47.551Z,19.90
2018-10-11T15:13:18.358Z,19.90
2018-10-11T15:18:16.338Z,19.90
2018-10-11T15:20:42.523Z,19.90
2018-10-11T15:23:08.690Z,19.90
2018-10-11T15:25:35.613Z,19.90
2018-10-11T15:28:01.875Z,19.90
2018-10-11T15:30:28.062Z,19.90
2018-10-11T15:32:54.243Z,19.90
2018-10-11T15:35:20.429Z,19.90
2018-10-11T15:37:46.596Z,19.90
2018-10-11T15:40:12.752Z,19.90
2018-10-11T15:42:38.924Z,19.90
2018-10-11T15:45:05.116Z,19.90
2018-10-11T15:47:31.273Z,19.90
2018-10-11T15:49:58.202Z,19.90
2018-10-11T15:52:24.390Z,19.90
2018-10-11T15:54:50.618Z,19.90
2018-10-11T15:57:16.796Z,19.90
2018-10-11T15:59:43.725Z,19.90
2018-10-11T16:02:09.907Z,19.90
2018-10-11T16:04:36.077Z,19.90
2018-10-11T16:07:02.651Z,19.90
2018-10-11T16:09:28.927Z,19.90
2018-10-11T16:11:55.059Z,19.90
2018-10-11T16:14:21.213Z,19.90
2018-10-11T16:16:48.153Z,19.90
2018-10-11T16:19:14.316Z,19.90
2018-10-11T16:21:40.481Z,19.90
2018-10-11T16:24:06.651Z,19.90
2018-10-11T16:26:33.585Z,19.90
2018-10-11T16:28:59.743Z,19.80
2018-10-11T16:31:25.900Z,19.80
2018-10-11T16:33:52.055Z,19.80
2018-10-11T16:36:18.222Z,19.80
2018-10-11T16:38:44.374Z,19.90
2018-10-11T16:41:10.554Z,19.80
2018-10-11T16:43:36.744Z,19.80
2018-10-11T16:46:02.910Z,19.80
2018-10-11T16:48:29.856Z,19.80
2018-10-11T16:50:56.026Z,19.80
2018-10-11T16:53:22.234Z,19.80
2018-10-11T16:55:48.409Z,19.80
2018-10-11T16:58:14.589Z,19.80
2018-10-11T17:00:40.768Z,19.80
2018-10-11T17:03:06.967Z,19.80
2018-10-11T17:05:33.136Z,19.80
2018-10-11T17:07:59.338Z,19.80
2018-10-11T17:10:25.515Z,19.80
2018-10-11T17:12:52.463Z,19.80
2018-10-11T17:15:18.753Z,19.80
2018-10-11T17:17:45.727Z,19.80
2018-10-11T17:20:11.891Z,19.80
2018-10-11T17:22:38.070Z,19.80
2018-10-11T17:25:04.232Z,19.80
2018-10-11T17:27:30.432Z,19.80
2018-10-11T17:29:56.597Z,19.80
2018-10-11T17:32:22.761Z,19.80
2018-10-11T17:34:48.941Z,19.80
2018-10-11T17:37:15.105Z,19.80
2018-10-11T17:39:41.262Z,19.80
2018-10-11T17:42:07.474Z,19.80
2018-10-11T17:44:33.648Z,19.80
2018-10-11T17:46:59.846Z,19.80
2018-10-11T17:49:26.039Z,19.80
2018-10-11T17:51:52.226Z,19.80
2018-10-11T17:54:18.405Z,19.80
2018-10-11T17:56:44.624Z,19.80
2018-10-11T17:59:10.770Z,19.80
2018-10-11T18:01:36.939Z,19.80
2018-10-11T18:04:03.138Z,19.90
2018-10-11T18:06:29.326Z,19.90
2018-10-11T18:08:55.543Z,19.80
2018-10-11T18:11:21.728Z,19.80
2018-10-11T18:13:47.917Z,19.80
2018-10-11T18:16:14.175Z,19.80
2018-10-11T18:18:40.289Z,19.80
2018-10-11T18:21:06.637Z,19.80
2018-10-11T18:23:33.576Z,19.80
2018-10-11T18:25:59.738Z,19.80
2018-10-11T18:28:25.907Z,19.80
2018-10-11T18:30:52.083Z,19.80
2018-10-11T18:33:19.016Z,19.80
2018-10-11T18:35:45.212Z,19.80
2018-10-11T18:38:11.360Z,19.80
2018-10-11T18:40:37.525Z,19.80
2018-10-11T18:43:03.701Z,19.80
2018-10-11T18:45:29.862Z,19.80
2018-10-11T18:47:56.019Z,19.80
2018-10-11T18:50:22.176Z,19.80
2018-10-11T18:52:48.351Z,19.80
2018-10-11T18:55:14.547Z,19.80
2018-10-11T18:57:40.739Z,19.80
2018-10-11T19:00:06.939Z,19.80
2018-10-11T19:02:33.130Z,19.80
2018-10-11T19:04:59.301Z,19.70
2018-10-11T19:07:25.478Z,19.70
2018-10-11T19:09:51.652Z,19.80
2018-10-11T19:14:50.150Z,19.70
2018-10-11T19:17:16.333Z,19.80
2018-10-11T19:19:44.009Z,19.70
2018-10-11T19:22:10.179Z,19.70
2018-10-11T19:24:36.401Z,19.70
2018-10-11T19:27:02.587Z,19.70
2018-10-11T19:29:28.763Z,19.70
2018-10-11T19:31:54.949Z,19.70
2018-10-11T19:34:21.112Z,19.70
2018-10-11T19:36:47.294Z,19.70
2018-10-11T19:39:13.484Z,19.70
2018-10-11T19:41:39.660Z,19.70
2018-10-11T19:44:05.815Z,19.70
2018-10-11T19:46:31.988Z,19.70
2018-10-11T19:48:58.217Z,19.70
2018-10-11T19:51:24.398Z,19.70
2018-10-11T19:53:50.568Z,19.70
2018-10-11T19:56:16.795Z,19.70
2018-10-11T19:58:42.946Z,19.70
2018-10-11T20:01:09.123Z,19.70
2018-10-11T20:03:35.293Z,19.60
2018-10-11T20:06:01.494Z,19.60
2018-10-11T20:08:27.715Z,19.60
2018-10-11T20:10:56.734Z,19.60
2018-10-11T20:13:22.906Z,19.60
2018-10-11T20:15:49.077Z,19.60
2018-10-11T20:18:15.304Z,19.60
2018-10-11T20:20:41.471Z,19.60
2018-10-11T20:23:07.837Z,19.60
2018-10-11T20:25:34.003Z,19.60
2018-10-11T20:28:02.681Z,19.60
2018-10-11T20:30:28.840Z,19.60
2018-10-11T20:32:54.995Z,19.60
2018-10-11T20:35:21.161Z,19.60
2018-10-11T20:37:47.317Z,19.60
2018-10-11T20:40:13.495Z,19.60
2018-10-11T20:42:39.679Z,19.60
2018-10-11T20:45:05.858Z,19.60
2018-10-11T20:47:32.028Z,19.60
2018-10-11T20:49:59.694Z,19.60
2018-10-11T20:52:27.403Z,19.60
2018-10-11T20:54:53.573Z,19.60
2018-10-11T20:57:19.828Z,19.60
2018-10-11T20:59:46.757Z,19.60
2018-10-11T21:02:14.438Z,19.60
2018-10-11T21:04:40.615Z,19.60
2018-10-11T21:07:06.781Z,19.60
2018-10-11T21:09:32.940Z,19.60
2018-10-11T21:11:59.133Z,19.60
2018-10-11T21:14:25.317Z,19.60
2018-10-11T21:16:51.517Z,19.60
2018-10-11T21:19:17.684Z,19.60
2018-10-11T21:21:43.854Z,19.60
2018-10-11T21:24:10.924Z,19.60
2018-10-11T21:26:37.102Z,19.60
2018-10-11T21:29:03.291Z,19.60
2018-10-11T21:31:32.664Z,19.60
2018-10-11T21:33:59.609Z,19.60
2018-10-11T21:36:26.560Z,19.60
2018-10-11T21:38:56.660Z,19.60
2018-10-11T21:41:22.822Z,19.60
2018-10-11T21:43:49.098Z,19.60
2018-10-11T21:48:47.632Z,19.60
2018-10-11T21:51:14.568Z,19.60
2018-10-11T21:53:40.734Z,19.60
2018-10-11T21:56:08.677Z,19.60
2018-10-11T21:58:34.847Z,19.60
2018-10-11T22:01:01.031Z,19.60
2018-10-11T22:03:27.210Z,19.60
2018-10-11T22:05:53.454Z,19.60
2018-10-11T22:08:19.638Z,19.60
2018-10-11T22:10:45.823Z,19.60
2018-10-11T22:13:11.992Z,19.60
2018-10-11T22:15:38.167Z,19.60
2018-10-11T22:18:04.340Z,19.60
2018-10-11T22:20:30.513Z,19.60
2018-10-11T22:22:56.679Z,19.60
2018-10-11T22:25:23.161Z,19.60
2018-10-11T22:27:49.342Z,19.60
2018-10-11T22:30:16.262Z,19.60
2018-10-11T22:32:42.429Z,19.60
2018-10-11T22:37:40.724Z,19.60
2018-10-11T22:42:38.631Z,19.60
2018-10-11T22:45:04.798Z,19.60
2018-10-11T22:47:30.970Z,19.60
2018-10-11T22:49:57.154Z,19.60
2018-10-11T22:52:23.324Z,19.60
2018-10-11T22:54:49.495Z,19.60
2018-10-11T22:57:15.650Z,19.60
2018-10-11T22:59:41.821Z,19.60
2018-10-11T23:02:07.981Z,19.60
2018-10-11T23:04:34.153Z,19.60
2018-10-11T23:07:00.341Z,19.60
2018-10-11T23:09:26.507Z,19.60
2018-10-11T23:11:53.454Z,19.60
2018-10-11T23:14:19.610Z,19.60
2018-10-11T23:16:45.789Z,19.60
2018-10-11T23:19:11.950Z,19.60
2018-10-11T23:21:38.119Z,19.60
2018-10-11T23:24:04.284Z,19.60
2018-10-11T23:26:31.226Z,19.60
2018-10-11T23:28:57.399Z,19.60
2018-10-11T23:31:23.586Z,19.60
2018-10-11T23:33:49.748Z,19.60
2018-10-11T23:36:15.921Z,19.60
2018-10-11T23:38:42.074Z,19.60
2018-10-11T23:41:08.242Z,19.60
2018-10-11T23:43:34.411Z,19.60
2018-10-11T23:46:01.342Z,19.60
2018-10-11T23:48:27.515Z,19.60
2018-10-11T23:50:53.682Z,19.60
2018-10-11T23:53:19.870Z,19.60
2018-10-11T23:55:46.034Z,19.60
2018-10-11T23:58:12.220Z,19.60
